createdAt,value
2022-12-03T00:02:18.106Z,99015.78
2022-12-03T00:04:44.783Z,99028.00
2022-12-03T00:07:11.393Z,99036.28
2022-12-03T00:09:37.863Z,99030.03
2022-12-03T00:12:04.625Z,99018.81
2022-12-03T00:14:31.131Z,99033.81
2022-12-03T00:16:57.610Z,99021.06
2022-12-03T00:19:24.147Z,99020.47
2022-12-03T00:21:50.689Z,99013.38
2022-12-03T00:24:17.736Z,99020.69
2022-12-03T00:26:44.366Z,99013.97
2022-12-03T00:29:11.329Z,99017.50
2022-12-03T00:31:37.905Z,99017.75
2022-12-03T00:34:04.500Z,99012.97
2022-12-03T00:36:31.041Z,99027.78
2022-12-03T00:38:57.517Z,99031.31
2022-12-03T00:41:24.081Z,99033.44
2022-12-03T00:43:50.585Z,99031.53
2022-12-03T00:46:21.375Z,99027.59
2022-12-03T00:48:48.362Z,99035.31
2022-12-03T00:51:14.902Z,99029.88
2022-12-03T00:53:41.473Z,99027.19
2022-12-03T00:56:08.288Z,99036.34
2022-12-03T00:58:34.981Z,99022.84
2022-12-03T01:01:01.542Z,99031.97
2022-12-03T01:03:28.321Z,99024.66
2022-12-03T01:05:54.900Z,99033.03
2022-12-03T01:08:21.497Z,99020.97
2022-12-03T01:10:47.993Z,99029.50
2022-12-03T01:13:14.568Z,99018.63
2022-12-03T01:15:41.204Z,99022.41
2022-12-03T01:18:07.712Z,99023.47
2022-12-03T01:20:36.239Z,99022.63
2022-12-03T01:23:02.813Z,99018.84
2022-12-03T01:25:29.353Z,99009.09
2022-12-03T01:27:55.930Z,99021.81
2022-12-03T01:30:22.549Z,99017.44
2022-12-03T01:32:49.269Z,99018.91
2022-12-03T01:35:15.827Z,99020.97
2022-12-03T01:37:42.394Z,99018.31
2022-12-03T01:40:11.856Z,99031.84
2022-12-03T01:42:41.127Z,99019.75
2022-12-03T01:45:11.919Z,99029.34
2022-12-03T01:47:38.622Z,99024.97
2022-12-03T01:50:27.532Z,99018.91
2022-12-03T01:52:55.724Z,99022.69
2022-12-03T01:55:23.684Z,99016.44
2022-12-03T01:57:51.841Z,99026.22
2022-12-03T02:00:23.977Z,99025.16
2022-12-03T02:02:54.971Z,99017.88
2022-12-03T02:05:24.962Z,99020.59
2022-12-03T02:07:53.243Z,99018.53
2022-12-03T02:10:23.817Z,99027.06
2022-12-03T02:13:06.061Z,99017.25
2022-12-03T02:15:32.651Z,99015.38
2022-12-03T02:17:59.465Z,99005.78
2022-12-03T02:20:26.445Z,99001.06
2022-12-03T02:23:03.475Z,99003.53
2022-12-03T02:25:32.865Z,99011.22
2022-12-03T02:27:59.977Z,98999.53
2022-12-03T02:30:28.356Z,98999.16
2022-12-03T02:32:56.456Z,99012.28
2022-12-03T02:35:28.988Z,99004.97
2022-12-03T02:37:59.363Z,99002.47
2022-12-03T02:40:29.170Z,99001.88
2022-12-03T02:42:59.139Z,99002.47
2022-12-03T02:45:28.883Z,98998.34
2022-12-03T02:48:07.990Z,99001.66
2022-12-03T02:50:41.673Z,98994.56
2022-12-03T02:53:12.245Z,99003.53
2022-12-03T02:55:39.098Z,99001.88
2022-12-03T02:58:06.218Z,99002.72
2022-12-03T03:00:33.653Z,98998.09
2022-12-03T03:03:01.326Z,98993.72
2022-12-03T03:05:28.083Z,98982.88
2022-12-03T03:07:55.165Z,98979.16
2022-12-03T03:10:22.911Z,98983.09
2022-12-03T03:12:50.063Z,98984.75
2022-12-03T03:15:16.710Z,98979.16
2022-12-03T03:17:43.419Z,98990.19
2022-12-03T03:20:10.572Z,98992.91
2022-12-03T03:22:39.724Z,98986.03
2022-12-03T03:25:08.107Z,98987.72
2022-12-03T03:27:34.500Z,98987.72
2022-12-03T03:30:01.161Z,98984.38
2022-12-03T03:32:28.375Z,98985.19
2022-12-03T03:34:55.778Z,98990.25
2022-12-03T03:37:22.674Z,98991.44
2022-12-03T03:39:49.417Z,98992.28
2022-12-03T03:42:16.157Z,98996.03
2022-12-03T03:44:42.725Z,98987.91
2022-12-03T03:47:09.533Z,98993.34
2022-12-03T03:49:36.422Z,98989.56
2022-12-03T03:52:03.457Z,98981.50
2022-12-03T03:54:30.535Z,98990.03
2022-12-03T03:56:57.297Z,98983.53
2022-12-03T03:59:23.856Z,98990.63
2022-12-03T04:01:50.410Z,98971.94
2022-12-03T04:04:22.704Z,98977.50
2022-12-03T04:06:49.347Z,98976.44
2022-12-03T04:09:16.070Z,98968.31
2022-12-03T04:12:01.149Z,98965.59
2022-12-03T04:14:27.715Z,98957.91
2022-12-03T04:16:54.302Z,98955.78
2022-12-03T04:19:20.816Z,98956.63
2022-12-03T04:22:05.668Z,98948.72
2022-12-03T04:24:32.160Z,98947.66
2022-12-03T04:27:17.269Z,98938.09
2022-12-03T04:29:43.840Z,98931.38
2022-12-03T04:32:28.669Z,98926.22
2022-12-03T04:35:13.740Z,98930.53
2022-12-03T04:37:40.930Z,98930.75
2022-12-03T04:40:27.983Z,98927.81
2022-12-03T04:42:54.517Z,98926.41
2022-12-03T04:45:21.073Z,98915.78
2022-12-03T04:47:47.616Z,98923.44
2022-12-03T04:50:14.157Z,98906.19
2022-12-03T04:52:40.866Z,98927.00
2022-12-03T04:55:07.797Z,98909.50
2022-12-03T04:57:34.330Z,98906.56
2022-12-03T05:00:00.866Z,98906.56
2022-12-03T05:02:27.481Z,98909.06
2022-12-03T05:04:54.299Z,98906.34
2022-12-03T05:07:21.086Z,98912.00
2022-12-03T05:09:47.646Z,98903.03
2022-12-03T05:12:14.191Z,98912.00
2022-12-03T05:14:40.760Z,98888.94
2022-12-03T05:17:07.307Z,98903.84
2022-12-03T05:19:52.474Z,98902.63
2022-12-03T05:22:18.963Z,98898.50
2022-12-03T05:24:45.521Z,98909.50
2022-12-03T05:27:12.095Z,98905.16
2022-12-03T05:29:38.680Z,98905.81
2022-12-03T05:32:05.465Z,98889.16
2022-12-03T05:34:32.024Z,98903.47
2022-12-03T05:36:58.594Z,98900.53
2022-12-03T05:39:25.612Z,98899.56
2022-12-03T05:42:10.522Z,98893.53
2022-12-03T05:44:37.052Z,98905.34
2022-12-03T05:47:03.575Z,98903.91
2022-12-03T05:49:30.069Z,98898.25
2022-12-03T05:51:58.666Z,98903.69
2022-12-03T05:54:25.749Z,98898.13
2022-12-03T05:56:52.239Z,98903.69
2022-12-03T05:59:18.798Z,98899.78
2022-12-03T06:01:45.376Z,98894.81
2022-12-03T06:04:11.970Z,98900.84
2022-12-03T06:06:38.543Z,98912.88
2022-12-03T06:09:05.372Z,98909.34
2022-12-03T06:11:34.124Z,98915.81
2022-12-03T06:14:01.161Z,98919.38
2022-12-03T06:16:27.733Z,98907.69
2022-12-03T06:18:54.363Z,98902.03
2022-12-03T06:21:20.936Z,98912.88
2022-12-03T06:23:47.495Z,98903.09
2022-12-03T06:26:14.429Z,98903.31
2022-12-03T06:28:45.527Z,98911.22
2022-12-03T06:31:12.971Z,98917.66
2022-12-03T06:33:39.619Z,98906.19
2022-12-03T06:36:06.631Z,98902.56
2022-12-03T06:38:33.190Z,98909.19
2022-12-03T06:40:59.747Z,98909.59
2022-12-03T06:43:26.284Z,98914.31
2022-12-03T06:45:52.990Z,98912.22
2022-12-03T06:48:19.550Z,98910.13
2022-12-03T06:50:46.157Z,98905.66
2022-12-03T06:53:12.734Z,98886.34
2022-12-03T06:55:39.289Z,98908.13
2022-12-03T06:58:05.771Z,98900.59
2022-12-03T07:00:32.269Z,98917.19
2022-12-03T07:02:58.841Z,98924.06
2022-12-03T07:05:25.480Z,98913.63
2022-12-03T07:07:55.259Z,98927.78
2022-12-03T07:10:22.271Z,98906.94
2022-12-03T07:12:48.828Z,98916.00
2022-12-03T07:15:15.417Z,98911.88
2022-12-03T07:17:41.972Z,98919.69
2022-12-03T07:20:08.976Z,98916.13
2022-12-03T07:22:35.546Z,98907.56
2022-12-03T07:25:02.092Z,98923.97
2022-12-03T07:27:28.631Z,98921.66
2022-12-03T07:29:55.140Z,98934.78
2022-12-03T07:32:21.621Z,98916.81
2022-12-03T07:34:48.173Z,98925.91
2022-12-03T07:37:18.639Z,98927.56
2022-12-03T07:39:48.021Z,98926.91
2022-12-03T07:42:14.590Z,98930.91
2022-12-03T07:44:41.160Z,98928.19
2022-12-03T07:47:07.814Z,98940.00
2022-12-03T07:49:34.395Z,98937.28
2022-12-03T07:52:00.898Z,98933.28
2022-12-03T07:54:27.552Z,98935.31
2022-12-03T07:56:59.623Z,98926.09
2022-12-03T07:59:27.946Z,98933.78
2022-12-03T08:01:54.524Z,98927.28
2022-12-03T08:04:21.452Z,98916.66
2022-12-03T08:06:48.240Z,98930.16
2022-12-03T08:09:16.356Z,98920.13
2022-12-03T08:11:45.085Z,98921.53
2022-12-03T08:14:13.557Z,98922.38
2022-12-03T08:16:40.659Z,98917.31
2022-12-03T08:19:15.621Z,98917.31
2022-12-03T08:21:42.188Z,98924.16
2022-12-03T08:24:13.609Z,98916.59
2022-12-03T08:26:40.757Z,98920.97
2022-12-03T08:29:18.993Z,98912.59
2022-12-03T08:31:52.146Z,98909.88
2022-12-03T08:34:27.774Z,98909.88
2022-12-03T08:37:08.403Z,98916.13
2022-12-03T08:39:39.242Z,98911.91
2022-12-03T08:42:31.118Z,98913.78
2022-12-03T08:45:39.407Z,98925.38
2022-12-03T08:48:27.312Z,98921.38
2022-12-03T08:50:58.088Z,98922.22
2022-12-03T08:53:27.671Z,98926.34
2022-12-03T08:55:57.141Z,98923.41
2022-12-03T08:58:40.844Z,98916.97
2022-12-03T09:01:10.607Z,98925.91
2022-12-03T09:03:39.580Z,98908.94
2022-12-03T09:06:06.483Z,98923.28
2022-12-03T09:08:33.028Z,98911.66
2022-12-03T09:10:59.656Z,98930.38
2022-12-03T09:13:26.171Z,98924.69
2022-12-03T09:15:52.729Z,98920.91
2022-12-03T09:18:19.228Z,98910.59
2022-12-03T09:20:45.783Z,98920.75
2022-12-03T09:23:12.300Z,98914.38
2022-12-03T09:25:38.778Z,98913.56
2022-12-03T09:28:05.553Z,98936.88
2022-12-03T09:30:32.106Z,98928.91
2022-12-03T09:32:59.987Z,98920.28
2022-12-03T09:35:27.287Z,98931.03
2022-12-03T09:37:53.880Z,98934.84
2022-12-03T09:40:20.892Z,98895.88
2022-12-03T09:42:47.511Z,98939.44
2022-12-03T09:45:15.261Z,98922.88
2022-12-03T09:47:44.321Z,98942.41
2022-12-03T09:50:14.334Z,98943.47
2022-12-03T09:52:40.928Z,98934.09
2022-12-03T09:55:19.496Z,98923.56
2022-12-03T09:57:46.060Z,98940.16
2022-12-03T10:00:18.543Z,98946.41
2022-12-03T10:02:46.899Z,98943.06
2022-12-03T10:05:13.993Z,98946.41
2022-12-03T10:07:41.102Z,98934.34
2022-12-03T10:10:15.525Z,98946.63
2022-12-03T10:12:42.090Z,98940.59
2022-12-03T10:15:13.857Z,98924.84
2022-12-03T10:17:40.805Z,98937.88
2022-12-03T10:20:11.476Z,98921.78
2022-12-03T10:22:38.065Z,98943.78
2022-12-03T10:25:10.458Z,98930.44
2022-12-03T10:27:37.076Z,98931.72
2022-12-03T10:30:14.686Z,98931.25
2022-12-03T10:32:49.282Z,98933.16
2022-12-03T10:35:18.713Z,98941.31
2022-12-03T10:38:02.408Z,98938.81
2022-12-03T10:40:39.155Z,98924.97
2022-12-03T10:43:17.848Z,98925.22
2022-12-03T10:45:45.439Z,98929.00
2022-12-03T10:48:17.773Z,98929.22
2022-12-03T10:50:49.906Z,98922.94
2022-12-03T10:53:17.444Z,98911.97
2022-12-03T10:55:45.424Z,98922.38
2022-12-03T10:58:23.806Z,98922.38
2022-12-03T11:00:52.190Z,98922.38
2022-12-03T11:03:28.286Z,98905.94
2022-12-03T11:05:56.161Z,98911.72
2022-12-03T11:08:27.860Z,98911.13
2022-12-03T11:11:03.361Z,98908.03
2022-12-03T11:13:32.606Z,98913.63
2022-12-03T11:16:03.355Z,98910.06
2022-12-03T11:18:50.177Z,98883.22
2022-12-03T11:21:17.476Z,98898.38
2022-12-03T11:23:46.686Z,98889.38
2022-12-03T11:26:18.985Z,98882.97
2022-12-03T11:28:46.203Z,98880.66
2022-12-03T11:31:38.893Z,98879.81
2022-12-03T11:34:20.830Z,98877.09
2022-12-03T11:37:09.255Z,98877.94
2022-12-03T11:39:45.143Z,98874.38
2022-12-03T11:42:26.643Z,98871.03
2022-12-03T11:45:11.190Z,98872.94
2022-12-03T11:47:47.455Z,98869.38
2022-12-03T11:50:39.033Z,98860.06
2022-12-03T11:53:13.771Z,98849.19
2022-12-03T11:55:48.345Z,98862.28
2022-12-03T11:58:28.902Z,98863.38
2022-12-03T12:00:58.339Z,98861.72
2022-12-03T12:03:27.687Z,98843.41
2022-12-03T12:06:11.733Z,98853.78
2022-12-03T12:08:51.605Z,98843.00
2022-12-03T12:11:27.221Z,98855.69
2022-12-03T12:13:56.420Z,98846.78
2022-12-03T12:16:42.214Z,98844.00
2022-12-03T12:19:28.136Z,98841.72
2022-12-03T12:21:55.323Z,98841.50
2022-12-03T12:24:40.530Z,98842.34
2022-12-03T12:27:09.800Z,98839.00
2022-12-03T12:29:37.730Z,98822.94
2022-12-03T12:32:10.649Z,98828.13
2022-12-03T12:34:41.444Z,98824.22
2022-12-03T12:37:22.998Z,98823.75
2022-12-03T12:39:53.617Z,98825.66
2022-12-03T12:42:37.663Z,98807.19
2022-12-03T12:45:15.747Z,98821.28
2022-12-03T12:47:49.245Z,98815.00
2022-12-03T12:50:18.304Z,98821.75
2022-12-03T12:53:26.578Z,98818.56
2022-12-03T12:56:06.279Z,98802.38
2022-12-03T12:58:33.268Z,98801.19
2022-12-03T13:01:05.170Z,98797.78
2022-12-03T13:03:37.418Z,98798.63
2022-12-03T13:06:04.165Z,98801.94
2022-12-03T13:08:40.540Z,98792.25
2022-12-03T13:11:31.969Z,98790.88
2022-12-03T13:13:58.565Z,98795.31
2022-12-03T13:16:31.584Z,98787.28
2022-12-03T13:18:59.539Z,98791.16
2022-12-03T13:21:44.221Z,98785.34
2022-12-03T13:24:34.004Z,98787.56
2022-12-03T13:27:07.566Z,98785.75
2022-12-03T13:29:34.122Z,98784.69
2022-12-03T13:32:03.240Z,98789.16
2022-12-03T13:34:33.906Z,98773.22
2022-12-03T13:37:01.505Z,98776.38
2022-12-03T13:39:35.143Z,98780.06
2022-12-03T13:42:26.563Z,98770.69
2022-12-03T13:44:53.457Z,98766.53
2022-12-03T13:47:22.348Z,98762.34
2022-12-03T13:49:52.061Z,98764.00
2022-12-03T13:52:24.325Z,98746.91
2022-12-03T13:54:52.983Z,98758.31
2022-12-03T13:57:22.035Z,98740.97
2022-12-03T13:59:48.903Z,98749.25
2022-12-03T14:02:15.661Z,98751.13
2022-12-03T14:04:42.299Z,98760.38
2022-12-03T14:07:08.859Z,98758.31
2022-12-03T14:09:35.415Z,98749.72
2022-12-03T14:12:20.497Z,98741.72
2022-12-03T14:14:47.058Z,98743.84
2022-12-03T14:17:13.756Z,98741.13
2022-12-03T14:19:40.353Z,98754.34
2022-12-03T14:22:09.270Z,98751.44
2022-12-03T14:24:37.117Z,98752.44
2022-12-03T14:27:03.759Z,98754.44
2022-12-03T14:29:30.387Z,98751.16
2022-12-03T14:31:57.196Z,98751.72
2022-12-03T14:34:23.734Z,98748.91
2022-12-03T14:36:50.486Z,98771.75
2022-12-03T14:39:17.143Z,98753.81
2022-12-03T14:42:02.216Z,98777.22
2022-12-03T14:44:28.803Z,98772.88
2022-12-03T14:46:57.499Z,98761.16
2022-12-03T14:49:24.382Z,98766.13
2022-12-03T14:51:50.934Z,98768.28
2022-12-03T14:54:17.612Z,98777.81
2022-12-03T14:56:44.217Z,98740.13
2022-12-03T14:59:10.825Z,98777.44
2022-12-03T15:01:37.527Z,98764.59
2022-12-03T15:04:04.199Z,98762.38
2022-12-03T15:06:30.770Z,98790.13
2022-12-03T15:08:57.347Z,98762.38
2022-12-03T15:11:23.929Z,98795.56
2022-12-03T15:13:50.531Z,98783.47
2022-12-03T15:16:17.169Z,98794.25
2022-12-03T15:18:45.348Z,98800.19
2022-12-03T15:21:11.940Z,98768.97
2022-12-03T15:23:38.588Z,98788.13
2022-12-03T15:26:05.287Z,98791.16
2022-12-03T15:28:31.823Z,98771.06
2022-12-03T15:30:58.665Z,98778.22
2022-12-03T15:33:25.621Z,98803.31
2022-12-03T15:35:52.181Z,98803.75
2022-12-03T15:38:19.336Z,98793.78
2022-12-03T15:40:45.978Z,98804.53
2022-12-03T15:43:12.647Z,98769.88
2022-12-03T15:45:39.255Z,98793.53
2022-12-03T15:48:06.016Z,98794.22
2022-12-03T15:50:38.452Z,98766.72
2022-12-03T15:53:06.584Z,98799.94
2022-12-03T15:55:33.217Z,98803.56
2022-12-03T15:57:59.758Z,98804.53
2022-12-03T16:00:26.320Z,98785.47
2022-12-03T16:02:53.298Z,98786.28
2022-12-03T16:05:20.180Z,98785.16
2022-12-03T16:07:46.787Z,98792.66
2022-12-03T16:10:13.560Z,98806.38
2022-12-03T16:12:40.238Z,98804.16
2022-12-03T16:15:06.973Z,98819.25
2022-12-03T16:17:33.748Z,98814.09
2022-12-03T16:20:15.429Z,98787.63
2022-12-03T16:22:42.077Z,98810.13
2022-12-03T16:25:08.732Z,98819.06
2022-12-03T16:27:37.003Z,98795.31
2022-12-03T16:30:06.591Z,98817.81
2022-12-03T16:32:33.167Z,98794.09
2022-12-03T16:34:59.686Z,98794.41
2022-12-03T16:37:26.285Z,98813.28
2022-12-03T16:39:53.089Z,98809.31
2022-12-03T16:42:19.801Z,98813.75
2022-12-03T16:45:04.612Z,98800.44
2022-12-03T16:47:34.171Z,98819.56
2022-12-03T16:50:07.456Z,98821.34
2022-12-03T16:52:34.503Z,98817.41
2022-12-03T16:55:01.047Z,98797.66
2022-12-03T16:57:33.116Z,98796.56
2022-12-03T17:00:00.256Z,98801.81
2022-12-03T17:02:27.452Z,98811.81
2022-12-03T17:04:54.338Z,98810.16
2022-12-03T17:07:20.892Z,98801.13
2022-12-03T17:09:47.484Z,98802.00
2022-12-03T17:12:14.059Z,98782.41
2022-12-03T17:14:40.559Z,98796.69
2022-12-03T17:17:07.109Z,98784.84
2022-12-03T17:19:33.688Z,98780.84
2022-12-03T17:22:00.255Z,98775.47
2022-12-03T17:24:26.908Z,98785.34
2022-12-03T17:26:53.430Z,98791.63
2022-12-03T17:29:19.909Z,98796.41
2022-12-03T17:31:46.539Z,98774.31
2022-12-03T17:34:13.153Z,98773.75
2022-12-03T17:36:39.676Z,98794.44
2022-12-03T17:39:06.280Z,98789.13
2022-12-03T17:41:35.204Z,98783.13
2022-12-03T17:44:04.805Z,98792.63
2022-12-03T17:46:35.743Z,98773.81
2022-12-03T17:49:02.347Z,98808.78
2022-12-03T17:51:29.056Z,98767.22
2022-12-03T17:53:55.650Z,98763.91
2022-12-03T17:56:22.153Z,98806.91
2022-12-03T17:58:48.899Z,98798.28
2022-12-03T18:01:15.565Z,98761.75
2022-12-03T18:03:44.562Z,98804.47
2022-12-03T18:06:11.190Z,98797.13
2022-12-03T18:08:37.751Z,98774.53
2022-12-03T18:11:04.409Z,98781.00
2022-12-03T18:13:30.904Z,98774.41
2022-12-03T18:15:57.596Z,98779.72
2022-12-03T18:18:24.211Z,98786.00
2022-12-03T18:20:52.693Z,98788.50
2022-12-03T18:23:19.358Z,98770.72
2022-12-03T18:25:45.922Z,98783.63
2022-12-03T18:28:12.474Z,98785.72
2022-12-03T18:30:39.119Z,98762.06
2022-12-03T18:33:05.788Z,98778.28
2022-12-03T18:35:32.439Z,98776.53
2022-12-03T18:37:59.004Z,98774.97
2022-12-03T18:40:27.175Z,98769.44
2022-12-03T18:42:54.093Z,98787.50
2022-12-03T18:45:20.668Z,98760.81
2022-12-03T18:47:47.440Z,98776.88
2022-12-03T18:50:14.640Z,98771.69
2022-12-03T18:52:41.227Z,98767.78
2022-12-03T18:55:08.481Z,98756.31
2022-12-03T18:57:35.012Z,98774.03
2022-12-03T19:00:10.314Z,98788.09
2022-12-03T19:03:01.945Z,98757.34
2022-12-03T19:05:26.389Z,98789.16
2022-12-03T19:07:55.108Z,98795.06
2022-12-03T19:10:22.166Z,98804.31
2022-12-03T19:12:49.802Z,98801.00
2022-12-03T19:15:16.807Z,98791.53
2022-12-03T19:17:48.066Z,98768.00
2022-12-03T19:20:14.913Z,98791.88
2022-12-03T19:22:41.488Z,98771.03
2022-12-03T19:25:08.266Z,98796.97
2022-12-03T19:27:34.784Z,98788.19
2022-12-03T19:30:01.340Z,98784.44
2022-12-03T19:32:27.905Z,98772.94
2022-12-03T19:34:54.584Z,98784.19
2022-12-03T19:37:21.166Z,98777.44
2022-12-03T19:39:47.803Z,98769.88
2022-12-03T19:42:14.375Z,98783.31
2022-12-03T19:44:40.953Z,98785.44
2022-12-03T19:47:07.486Z,98794.91
2022-12-03T19:49:34.052Z,98795.06
2022-12-03T19:52:00.598Z,98815.28
2022-12-03T19:54:27.154Z,98808.09
2022-12-03T19:56:53.679Z,98795.56
2022-12-03T19:59:20.239Z,98805.88
2022-12-03T20:01:46.979Z,98804.22
2022-12-03T20:04:13.699Z,98783.66
2022-12-03T20:06:40.362Z,98785.88
2022-12-03T20:09:12.347Z,98796.53
2022-12-03T20:11:40.395Z,98799.59
2022-12-03T20:14:10.273Z,98796.75
2022-12-03T20:16:37.038Z,98800.06
2022-12-03T20:19:05.759Z,98790.31
2022-12-03T20:21:34.245Z,98789.13
2022-12-03T20:24:01.036Z,98790.53
2022-12-03T20:26:27.839Z,98787.00
2022-12-03T20:28:55.191Z,98791.38
2022-12-03T20:31:23.458Z,98773.50
2022-12-03T20:33:51.797Z,98789.22
2022-12-03T20:36:18.816Z,98784.03
2022-12-03T20:38:45.509Z,98767.53
2022-12-03T20:41:14.680Z,98783.63
2022-12-03T20:43:41.330Z,98779.44
2022-12-03T20:46:13.276Z,98760.25
2022-12-03T20:48:40.601Z,98761.34
2022-12-03T20:51:10.118Z,98755.34
2022-12-03T20:53:37.234Z,98775.88
2022-12-03T20:56:05.605Z,98779.94
2022-12-03T20:58:32.210Z,98775.31
2022-12-03T21:01:16.730Z,98751.88
2022-12-03T21:03:44.289Z,98774.25
2022-12-03T21:06:11.842Z,98773.31
2022-12-03T21:08:41.900Z,98769.88
2022-12-03T21:11:10.770Z,98761.63
2022-12-03T21:13:41.047Z,98753.66
2022-12-03T21:16:09.334Z,98749.91
2022-12-03T21:18:35.918Z,98769.84
2022-12-03T21:21:03.208Z,98761.69
2022-12-03T21:23:30.738Z,98767.88
2022-12-03T21:26:11.864Z,98770.09
2022-12-03T21:28:39.559Z,98763.69
2022-12-03T21:31:08.908Z,98757.06
2022-12-03T21:33:36.239Z,98754.75
2022-12-03T21:36:04.625Z,98745.31
2022-12-03T21:38:31.414Z,98758.81
2022-12-03T21:40:58.649Z,98731.13
2022-12-03T21:43:25.775Z,98732.47
2022-12-03T21:45:52.675Z,98753.59
2022-12-03T21:48:19.838Z,98759.72
2022-12-03T21:50:46.897Z,98757.50
2022-12-03T21:53:13.405Z,98755.94
2022-12-03T21:55:40.794Z,98729.50
2022-12-03T21:58:08.238Z,98755.13
2022-12-03T22:00:35.065Z,98734.94
2022-12-03T22:03:01.803Z,98723.41
2022-12-03T22:05:28.393Z,98734.09
2022-12-03T22:07:54.916Z,98736.69
2022-12-03T22:10:21.533Z,98747.34
2022-12-03T22:12:48.063Z,98725.31
2022-12-03T22:15:18.718Z,98736.94
2022-12-03T22:17:45.800Z,98715.28
2022-12-03T22:20:12.468Z,98707.19
2022-12-03T22:22:39.079Z,98714.25
2022-12-03T22:25:05.744Z,98725.81
2022-12-03T22:27:32.409Z,98720.06
2022-12-03T22:29:58.991Z,98703.75
2022-12-03T22:32:25.701Z,98706.47
2022-12-03T22:34:52.206Z,98714.09
2022-12-03T22:37:18.739Z,98716.81
2022-12-03T22:39:45.306Z,98703.75
2022-12-03T22:42:11.806Z,98689.88
2022-12-03T22:44:38.363Z,98695.19
2022-12-03T22:47:04.987Z,98711.28
2022-12-03T22:49:31.605Z,98709.97
2022-12-03T22:51:58.112Z,98681.63
2022-12-03T22:54:24.704Z,98704.03
2022-12-03T22:56:51.252Z,98712.72
2022-12-03T22:59:17.863Z,98699.81
2022-12-03T23:01:44.508Z,98706.25
2022-12-03T23:04:11.599Z,98681.13
2022-12-03T23:06:38.488Z,98708.66
2022-12-03T23:09:06.821Z,98708.47
2022-12-03T23:11:33.283Z,98704.94
2022-12-03T23:14:00.029Z,98696.91
2022-12-03T23:16:29.910Z,98681.53
2022-12-03T23:19:00.816Z,98685.25
2022-12-03T23:21:30.499Z,98665.88
2022-12-03T23:24:01.925Z,98646.81
2022-12-03T23:26:28.989Z,98657.34
2022-12-03T23:28:55.735Z,98665.88
2022-12-03T23:31:27.286Z,98674.38
2022-12-03T23:33:54.003Z,98669.25
2022-12-03T23:36:21.085Z,98649.44
2022-12-03T23:38:47.877Z,98660.84
2022-12-03T23:41:16.575Z,98659.09
2022-12-03T23:43:43.189Z,98651.16
2022-12-03T23:46:16.814Z,98654.06
2022-12-03T23:48:43.593Z,98622.03
2022-12-03T23:51:12.622Z,98644.09
2022-12-03T23:53:39.820Z,98658.53
2022-12-03T23:56:08.317Z,98662.97
2022-12-03T23:58:35.154Z,98618.00
